createdAt,value
2023-03-08T00:01:33.890Z,88.17
2023-03-08T00:04:02.720Z,88.07
2023-03-08T00:06:30.939Z,88.07
2023-03-08T00:09:00.123Z,88.08
2023-03-08T00:11:29.300Z,88.01
2023-03-08T00:13:58.777Z,88.07
2023-03-08T00:16:26.889Z,87.97
2023-03-08T00:18:56.284Z,87.83
2023-03-08T00:21:24.467Z,88.05
2023-03-08T00:23:54.375Z,87.96
2023-03-08T00:26:22.753Z,88.04
2023-03-08T00:28:51.337Z,88.14
2023-03-08T00:31:22.435Z,88.07
2023-03-08T00:33:55.285Z,88.11
2023-03-08T00:36:25.810Z,88.22
2023-03-08T00:38:53.770Z,88.03
2023-03-08T00:41:22.154Z,87.95
2023-03-08T00:43:51.004Z,88.09
2023-03-08T00:46:19.885Z,87.95
2023-03-08T00:48:49.429Z,88.14
2023-03-08T00:51:18.679Z,88.30
2023-03-08T00:53:47.885Z,88.26
2023-03-08T00:56:16.113Z,88.20
2023-03-08T01:06:22.410Z,88.31
2023-03-08T01:08:51.648Z,88.23
2023-03-08T01:11:21.746Z,88.21
2023-03-08T01:13:49.947Z,88.45
2023-03-08T01:16:26.249Z,88.46
2023-03-08T01:18:55.307Z,88.41
2023-03-08T01:21:23.976Z,88.50
2023-03-08T01:23:52.374Z,88.79
2023-03-08T01:26:23.853Z,88.68
2023-03-08T01:28:52.021Z,88.57
2023-03-08T01:31:21.896Z,88.78
2023-03-08T01:33:51.184Z,88.69
2023-03-08T01:36:21.199Z,88.77
2023-03-08T01:38:51.959Z,88.85
2023-03-08T01:41:22.059Z,88.70
2023-03-08T01:43:51.650Z,88.75
2023-03-08T01:46:32.578Z,88.86
2023-03-08T01:49:16.229Z,88.76
2023-03-08T01:52:09.022Z,88.81
2023-03-08T01:55:02.906Z,88.71
2023-03-08T01:57:33.770Z,88.93
2023-03-08T02:00:16.158Z,88.95
2023-03-08T02:02:51.392Z,88.74
2023-03-08T02:05:19.891Z,88.88
2023-03-08T02:07:49.689Z,88.80
2023-03-08T02:10:19.354Z,88.70
2023-03-08T02:12:49.835Z,89.04
2023-03-08T02:15:19.124Z,88.71
2023-03-08T02:17:50.513Z,88.67
2023-03-08T02:20:23.103Z,88.78
2023-03-08T02:22:53.439Z,88.74
2023-03-08T02:25:23.885Z,88.45
2023-03-08T02:27:53.324Z,88.53
2023-03-08T02:30:25.993Z,88.44
2023-03-08T02:32:58.880Z,88.33
2023-03-08T02:35:30.585Z,88.51
2023-03-08T02:37:58.727Z,88.34
2023-03-08T02:40:26.994Z,88.58
2023-03-08T02:42:56.614Z,88.47
2023-03-08T02:45:25.784Z,88.41
2023-03-08T02:47:54.684Z,88.52
2023-03-08T02:50:22.865Z,88.40
2023-03-08T02:52:50.932Z,88.21
2023-03-08T02:55:19.002Z,88.15
2023-03-08T02:57:47.349Z,88.11
2023-03-08T03:00:17.318Z,88.26
2023-03-08T03:02:45.676Z,88.04
2023-03-08T03:05:14.401Z,87.97
2023-03-08T03:07:43.765Z,87.97
2023-03-08T03:10:17.063Z,87.89
2023-03-08T03:12:45.642Z,87.97
2023-03-08T03:15:17.513Z,87.97
2023-03-08T03:17:48.037Z,88.02
2023-03-08T03:20:16.747Z,87.92
2023-03-08T03:22:47.352Z,87.99
2023-03-08T03:25:17.056Z,87.92
2023-03-08T03:27:46.378Z,88.10
2023-03-08T03:30:14.948Z,88.30
2023-03-08T03:32:43.758Z,88.13
2023-03-08T03:35:16.747Z,88.07
2023-03-08T03:37:45.304Z,88.21
2023-03-08T03:40:14.363Z,88.24
2023-03-08T03:42:43.795Z,88.44
2023-03-08T03:45:14.643Z,88.23
2023-03-08T03:47:44.079Z,88.27
2023-03-08T03:50:12.646Z,88.36
2023-03-08T03:52:52.586Z,88.33
2023-03-08T03:55:21.343Z,88.40
2023-03-08T03:57:52.832Z,88.53
2023-03-08T04:00:38.185Z,88.69
2023-03-08T04:03:14.509Z,88.58
2023-03-08T04:05:43.769Z,88.54
2023-03-08T04:08:17.988Z,88.66
2023-03-08T04:10:48.350Z,88.82
2023-03-08T04:13:16.486Z,88.87
2023-03-08T04:15:45.907Z,88.85
2023-03-08T04:18:15.553Z,88.88
2023-03-08T04:20:45.953Z,88.74
2023-03-08T04:23:14.277Z,88.75
2023-03-08T04:25:47.498Z,88.95
2023-03-08T04:28:16.606Z,88.81
2023-03-08T04:30:46.470Z,88.88
2023-03-08T04:33:16.843Z,88.94
2023-03-08T04:35:49.793Z,88.99
2023-03-08T04:38:19.695Z,89.26
2023-03-08T04:41:05.505Z,89.24
2023-03-08T04:43:56.324Z,89.25
2023-03-08T04:46:31.718Z,89.37
2023-03-08T04:49:00.773Z,89.64
2023-03-08T04:51:32.121Z,89.54
2023-03-08T04:54:04.952Z,89.70
2023-03-08T04:56:37.145Z,89.62
2023-03-08T04:59:10.415Z,89.69
2023-03-08T05:01:40.154Z,89.75
2023-03-08T05:04:13.689Z,89.90
2023-03-08T05:06:46.167Z,89.70
2023-03-08T05:09:16.991Z,89.73
2023-03-08T05:11:46.172Z,90.02
2023-03-08T05:14:18.157Z,89.93
2023-03-08T05:16:46.680Z,89.99
2023-03-08T05:19:14.924Z,90.06
2023-03-08T05:21:48.923Z,90.14
2023-03-08T05:24:17.099Z,90.10
2023-03-08T05:26:45.707Z,90.08
2023-03-08T05:29:18.353Z,90.05
2023-03-08T05:31:46.990Z,90.01
2023-03-08T05:34:15.847Z,90.19
2023-03-08T05:36:46.989Z,90.01
2023-03-08T05:39:15.145Z,90.06
2023-03-08T05:41:55.551Z,90.29
2023-03-08T05:44:28.407Z,90.31
2023-03-08T05:46:57.078Z,90.47
2023-03-08T05:49:26.593Z,90.43
2023-03-08T05:51:55.287Z,90.45
2023-03-08T05:54:24.262Z,90.44
2023-03-08T05:56:54.215Z,90.47
2023-03-08T05:59:27.020Z,90.60
2023-03-08T06:01:59.561Z,90.73
2023-03-08T06:04:46.728Z,90.98
2023-03-08T06:07:15.642Z,90.86
2023-03-08T06:09:47.741Z,90.95
2023-03-08T06:12:20.663Z,90.93
2023-03-08T06:14:53.140Z,90.91
2023-03-08T06:17:27.498Z,91.16
2023-03-08T06:19:58.728Z,91.07
2023-03-08T06:22:26.914Z,91.11
2023-03-08T06:24:56.256Z,91.39
2023-03-08T06:27:30.020Z,91.34
2023-03-08T06:30:00.761Z,91.52
2023-03-08T06:32:31.545Z,91.45
2023-03-08T06:35:01.076Z,91.48
2023-03-08T06:37:34.504Z,91.59
2023-03-08T06:40:05.552Z,91.70
2023-03-08T06:42:41.263Z,91.50
2023-03-08T06:45:12.586Z,91.77
2023-03-08T06:47:40.658Z,91.71
2023-03-08T06:50:10.269Z,91.81
2023-03-08T06:52:39.741Z,91.81
2023-03-08T06:55:10.467Z,91.97
2023-03-08T06:57:38.539Z,91.91
2023-03-08T07:00:09.738Z,91.94
2023-03-08T07:02:37.859Z,92.07
2023-03-08T07:05:06.240Z,92.09
2023-03-08T07:07:35.791Z,91.81
2023-03-08T07:10:04.733Z,92.03
2023-03-08T07:12:32.973Z,92.08
2023-03-08T07:15:01.087Z,92.35
2023-03-08T07:17:30.058Z,92.28
2023-03-08T07:19:58.365Z,92.27
2023-03-08T07:22:26.483Z,92.40
2023-03-08T07:24:54.921Z,92.37
2023-03-08T07:27:24.004Z,92.22
2023-03-08T07:29:52.314Z,92.40
2023-03-08T07:32:20.939Z,92.44
2023-03-08T07:34:49.445Z,92.47
2023-03-08T07:37:17.872Z,92.58
2023-03-08T07:39:46.206Z,92.62
2023-03-08T07:42:14.414Z,92.67
2023-03-08T07:44:45.654Z,92.64
2023-03-08T07:47:14.117Z,92.80
2023-03-08T07:49:42.306Z,92.82
2023-03-08T07:52:16.918Z,92.89
2023-03-08T07:54:45.708Z,92.83
2023-03-08T07:57:14.382Z,93.12
2023-03-08T07:59:43.658Z,93.09
2023-03-08T08:02:14.025Z,93.05
2023-03-08T08:04:42.652Z,93.10
2023-03-08T08:07:12.525Z,93.36
2023-03-08T08:09:40.522Z,93.42
2023-03-08T08:12:09.223Z,93.52
2023-03-08T08:14:38.267Z,93.67
2023-03-08T08:17:06.438Z,93.75
2023-03-08T08:19:34.834Z,93.75
2023-03-08T08:22:03.408Z,93.76
2023-03-08T08:24:33.010Z,93.96
2023-03-08T08:27:26.213Z,94.04
2023-03-08T08:29:54.180Z,94.23
2023-03-08T08:32:22.138Z,94.23
2023-03-08T08:34:50.293Z,94.41
2023-03-08T08:37:23.101Z,94.45
2023-03-08T08:39:51.138Z,94.62
2023-03-08T08:42:19.102Z,94.61
2023-03-08T08:44:47.198Z,94.69
2023-03-08T08:47:15.646Z,94.64
2023-03-08T08:49:44.667Z,94.85
2023-03-08T08:52:13.032Z,94.86
2023-03-08T08:54:42.024Z,95.02
2023-03-08T08:57:10.340Z,95.02
2023-03-08T08:59:38.694Z,95.06
2023-03-08T09:02:06.890Z,95.07
2023-03-08T09:04:35.150Z,95.20
2023-03-08T09:07:03.618Z,95.20
2023-03-08T09:09:32.304Z,95.24
2023-03-08T09:12:07.645Z,95.19
2023-03-08T09:14:37.049Z,95.33
2023-03-08T09:17:06.174Z,95.48
2023-03-08T09:19:36.603Z,95.54
2023-03-08T09:22:04.810Z,95.57
2023-03-08T09:24:33.954Z,95.55
2023-03-08T09:27:01.881Z,95.66
2023-03-08T09:29:30.069Z,95.63
2023-03-08T09:32:04.921Z,95.61
2023-03-08T09:34:39.553Z,95.71
2023-03-08T09:37:08.501Z,95.67
2023-03-08T09:39:41.241Z,95.68
2023-03-08T09:42:25.230Z,95.57
2023-03-08T09:45:08.163Z,95.42
2023-03-08T09:47:39.692Z,95.62
2023-03-08T09:50:32.962Z,95.69
2023-03-08T09:53:39.325Z,95.66
2023-03-08T09:56:16.378Z,95.69
2023-03-08T09:58:50.934Z,95.55
2023-03-08T10:01:32.580Z,95.60
2023-03-08T10:04:12.873Z,95.46
2023-03-08T10:06:46.374Z,95.57
2023-03-08T10:09:22.605Z,95.57
2023-03-08T10:12:02.544Z,95.51
2023-03-08T10:14:35.960Z,95.51
2023-03-08T10:17:10.566Z,95.71
2023-03-08T10:19:42.292Z,95.76
2023-03-08T10:22:16.959Z,95.63
2023-03-08T10:25:17.803Z,95.69
2023-03-08T10:27:53.207Z,95.62
2023-03-08T10:30:32.399Z,95.95
2023-03-08T10:33:01.469Z,95.89
2023-03-08T10:35:32.002Z,95.91
2023-03-08T10:38:00.919Z,95.94
2023-03-08T10:40:29.391Z,96.01
2023-03-08T10:43:04.227Z,96.23
2023-03-08T10:45:34.822Z,96.20
2023-03-08T10:48:04.878Z,96.07
2023-03-08T10:50:36.722Z,96.34
2023-03-08T10:53:16.767Z,96.37
2023-03-08T10:55:49.361Z,96.30
2023-03-08T10:58:27.662Z,96.21
2023-03-08T11:00:56.662Z,96.35
2023-03-08T11:03:25.647Z,96.29
2023-03-08T11:06:00.565Z,96.28
2023-03-08T11:08:33.625Z,95.91
2023-03-08T11:11:02.381Z,95.98
2023-03-08T11:13:32.961Z,95.69
2023-03-08T11:16:17.099Z,95.40
2023-03-08T11:18:51.568Z,95.26
2023-03-08T11:21:22.367Z,95.07
2023-03-08T11:24:06.777Z,94.68
2023-03-08T11:26:38.332Z,94.56
2023-03-08T11:29:26.006Z,94.22
2023-03-08T11:32:06.382Z,94.11
2023-03-08T11:35:04.741Z,93.88
2023-03-08T11:37:51.553Z,93.42
2023-03-08T11:40:22.490Z,93.09
2023-03-08T11:42:53.904Z,92.73
2023-03-08T11:45:32.748Z,92.15
2023-03-08T11:48:23.290Z,91.88
2023-03-08T11:51:11.163Z,91.53
2023-03-08T11:53:54.885Z,91.10
2023-03-08T11:56:35.996Z,90.54
2023-03-08T11:59:11.221Z,90.29
2023-03-08T12:01:46.300Z,89.93
2023-03-08T12:04:19.649Z,89.64
2023-03-08T12:06:48.321Z,89.31
2023-03-08T12:09:16.720Z,88.99
2023-03-08T12:11:46.738Z,88.71
2023-03-08T12:14:28.856Z,88.31
2023-03-08T12:17:05.806Z,87.84
2023-03-08T12:19:44.011Z,87.69
2023-03-08T12:22:24.135Z,87.47
2023-03-08T12:25:33.337Z,87.15
2023-03-08T12:28:05.531Z,86.84
2023-03-08T12:31:02.212Z,86.57
2023-03-08T12:33:32.979Z,86.48
2023-03-08T12:36:04.869Z,86.26
2023-03-08T12:38:37.543Z,86.10
2023-03-08T12:41:29.280Z,86.13
2023-03-08T12:44:01.135Z,85.74
2023-03-08T12:47:02.190Z,85.66
2023-03-08T12:49:34.560Z,85.52
2023-03-08T12:52:23.897Z,85.35
2023-03-08T12:55:00.819Z,85.33
2023-03-08T12:57:55.410Z,85.39
2023-03-08T13:00:44.577Z,85.19
2023-03-08T13:03:19.303Z,85.24
2023-03-08T13:05:50.458Z,85.23
2023-03-08T13:08:34.592Z,85.10
2023-03-08T13:11:11.910Z,84.92
2023-03-08T13:13:50.900Z,85.17
2023-03-08T13:16:26.366Z,85.07
2023-03-08T13:19:07.064Z,84.96
2023-03-08T13:21:41.521Z,84.92
2023-03-08T13:24:49.032Z,84.77
2023-03-08T13:27:23.343Z,84.80
2023-03-08T13:29:52.330Z,84.65
2023-03-08T13:32:23.663Z,84.53
2023-03-08T13:35:02.258Z,84.43
2023-03-08T13:37:36.783Z,84.31
2023-03-08T13:40:14.889Z,84.36
2023-03-08T13:42:53.689Z,84.04
2023-03-08T13:45:22.077Z,84.05
2023-03-08T13:47:50.071Z,83.96
2023-03-08T13:50:26.287Z,83.96
2023-03-08T13:52:54.826Z,84.10
2023-03-08T13:55:32.951Z,84.00
2023-03-08T13:58:01.686Z,84.00
2023-03-08T14:00:34.428Z,83.89
2023-03-08T14:03:06.595Z,84.03
2023-03-08T14:05:41.198Z,83.98
2023-03-08T14:08:19.794Z,84.01
2023-03-08T14:10:51.156Z,84.17
2023-03-08T14:13:30.193Z,84.04
2023-03-08T14:16:04.413Z,83.96
2023-03-08T14:18:39.388Z,84.17
2023-03-08T14:21:16.531Z,84.11
2023-03-08T14:23:56.244Z,83.91
2023-03-08T14:26:31.761Z,84.20
2023-03-08T14:29:19.636Z,84.13
2023-03-08T14:31:59.962Z,84.27
2023-03-08T14:35:04.017Z,84.33
2023-03-08T14:37:32.373Z,84.34
2023-03-08T14:40:23.442Z,84.45
2023-03-08T14:42:54.523Z,84.40
2023-03-08T14:45:40.247Z,84.44
2023-03-08T14:48:41.087Z,84.73
2023-03-08T14:51:17.464Z,84.72
2023-03-08T14:53:57.201Z,84.72
2023-03-08T14:56:26.084Z,85.08
2023-03-08T14:58:54.631Z,85.02
2023-03-08T15:01:32.480Z,85.08
2023-03-08T15:04:01.472Z,85.20
2023-03-08T15:06:31.931Z,85.29
2023-03-08T15:09:01.284Z,85.37
2023-03-08T15:11:31.810Z,85.35
2023-03-08T15:13:59.923Z,85.30
2023-03-08T15:16:30.903Z,85.50
2023-03-08T15:18:59.066Z,85.47
2023-03-08T15:21:28.181Z,85.67
2023-03-08T15:23:57.351Z,85.73
2023-03-08T15:26:27.087Z,85.86
2023-03-08T15:28:57.327Z,85.99
2023-03-08T15:31:27.329Z,86.03
2023-03-08T15:33:55.473Z,86.05
2023-03-08T15:36:25.227Z,86.20
2023-03-08T15:38:53.513Z,86.15
2023-03-08T15:41:22.411Z,86.26
2023-03-08T15:43:51.504Z,86.25
2023-03-08T15:46:22.051Z,86.52
2023-03-08T15:48:51.446Z,86.54
2023-03-08T15:51:20.850Z,86.67
2023-03-08T15:53:49.331Z,86.83
2023-03-08T15:56:17.592Z,86.84
2023-03-08T15:58:46.827Z,87.00
2023-03-08T16:01:15.195Z,87.11
2023-03-08T16:03:43.746Z,87.21
2023-03-08T16:06:15.065Z,87.25
2023-03-08T16:08:43.899Z,87.28
2023-03-08T16:11:16.676Z,87.57
2023-03-08T16:13:48.632Z,87.53
2023-03-08T16:16:16.688Z,87.58
2023-03-08T16:18:48.960Z,87.70
2023-03-08T16:21:17.281Z,87.76
2023-03-08T16:23:45.534Z,87.83
2023-03-08T16:26:17.193Z,87.70
2023-03-08T16:28:46.648Z,87.73
2023-03-08T16:31:15.334Z,87.82
2023-03-08T16:33:43.838Z,87.63
2023-03-08T16:36:12.466Z,87.62
2023-03-08T16:38:44.017Z,87.56
2023-03-08T16:41:13.983Z,87.53
2023-03-08T16:43:48.802Z,87.54
2023-03-08T16:46:22.621Z,87.54
2023-03-08T16:48:54.215Z,87.72
2023-03-08T16:51:24.646Z,87.51
2023-03-08T16:53:53.231Z,87.56
2023-03-08T16:56:26.776Z,87.43
2023-03-08T16:58:57.055Z,87.43
2023-03-08T17:01:25.396Z,87.36
2023-03-08T17:03:53.732Z,87.46
2023-03-08T17:06:23.733Z,87.46
2023-03-08T17:08:52.811Z,87.36
2023-03-08T17:11:29.492Z,87.36
2023-03-08T17:14:00.227Z,87.42
2023-03-08T17:16:35.768Z,87.31
2023-03-08T17:19:06.461Z,87.22
2023-03-08T17:21:38.631Z,87.30
2023-03-08T17:24:12.801Z,87.35
2023-03-08T17:26:43.520Z,87.24
2023-03-08T17:29:11.659Z,87.15
2023-03-08T17:31:42.515Z,87.22
2023-03-08T17:34:11.143Z,87.10
2023-03-08T17:36:40.743Z,87.20
2023-03-08T17:39:09.157Z,87.04
2023-03-08T17:41:38.824Z,86.99
2023-03-08T17:44:07.002Z,87.08
2023-03-08T17:46:35.429Z,87.04
2023-03-08T17:49:04.170Z,87.01
2023-03-08T17:51:32.636Z,86.90
2023-03-08T17:54:01.413Z,86.92
2023-03-08T17:56:31.179Z,86.70
2023-03-08T17:59:03.615Z,86.76
2023-03-08T18:01:32.071Z,86.75
2023-03-08T18:04:00.607Z,86.73
2023-03-08T18:06:35.523Z,86.65
2023-03-08T18:09:09.685Z,86.82
2023-03-08T18:11:38.064Z,86.72
2023-03-08T18:14:07.192Z,86.54
2023-03-08T18:16:35.208Z,86.59
2023-03-08T18:19:05.061Z,86.59
2023-03-08T18:21:34.481Z,86.53
2023-03-08T18:24:03.122Z,86.59
2023-03-08T18:26:31.541Z,86.64
2023-03-08T18:29:00.651Z,86.42
2023-03-08T18:31:31.138Z,86.54
2023-03-08T18:33:59.345Z,86.61
2023-03-08T18:36:28.075Z,86.62
2023-03-08T18:38:56.217Z,86.56
2023-03-08T18:41:27.365Z,86.42
2023-03-08T18:44:01.091Z,86.40
2023-03-08T18:46:32.110Z,86.42
2023-03-08T18:49:08.277Z,86.31
2023-03-08T18:51:37.803Z,86.06
2023-03-08T18:54:17.799Z,86.00
2023-03-08T18:56:46.021Z,86.07
2023-03-08T18:59:14.610Z,85.92
2023-03-08T19:01:44.705Z,85.62
2023-03-08T19:04:14.740Z,85.59
2023-03-08T19:06:43.438Z,85.48
2023-03-08T19:09:14.148Z,85.31
2023-03-08T19:11:42.233Z,85.22
2023-03-08T19:21:46.161Z,84.38
2023-03-08T19:24:15.650Z,84.14
2023-03-08T19:26:47.191Z,83.91
2023-03-08T19:29:17.555Z,83.62
2023-03-08T19:31:48.794Z,83.47
2023-03-08T19:34:17.148Z,83.19
2023-03-08T19:36:47.780Z,82.95
2023-03-08T19:39:21.639Z,82.60
2023-03-08T19:41:51.599Z,82.56
2023-03-08T19:44:20.056Z,82.47
2023-03-08T19:46:48.217Z,82.15
2023-03-08T19:49:20.487Z,81.80
2023-03-08T19:51:53.466Z,81.54
2023-03-08T19:54:22.646Z,81.36
2023-03-08T19:56:51.070Z,81.27
2023-03-08T19:59:23.625Z,80.91
2023-03-08T20:01:54.314Z,80.74
2023-03-08T20:04:22.499Z,80.59
2023-03-08T20:06:50.946Z,80.30
2023-03-08T20:09:24.007Z,80.24
2023-03-08T20:11:57.623Z,80.16
2023-03-08T20:14:28.332Z,79.93
2023-03-08T20:16:57.100Z,79.88
2023-03-08T20:19:36.879Z,79.76
2023-03-08T20:22:04.861Z,79.79
2023-03-08T20:24:35.525Z,79.68
2023-03-08T20:27:05.349Z,79.47
2023-03-08T20:29:34.522Z,79.13
2023-03-08T20:32:03.000Z,78.74
2023-03-08T20:34:32.319Z,78.57
2023-03-08T20:37:00.637Z,78.38
2023-03-08T20:39:28.876Z,78.18
2023-03-08T20:41:58.569Z,78.07
2023-03-08T20:44:26.618Z,77.94
2023-03-08T20:46:55.018Z,78.32
2023-03-08T20:49:23.055Z,78.46
2023-03-08T20:51:51.744Z,78.83
2023-03-08T20:54:23.063Z,79.26
2023-03-08T20:56:51.982Z,79.39
2023-03-08T20:59:24.343Z,79.55
2023-03-08T21:01:55.440Z,79.81
2023-03-08T21:04:23.510Z,80.13
2023-03-08T21:06:55.768Z,80.19
2023-03-08T21:09:24.532Z,80.27
2023-03-08T21:11:52.806Z,80.27
2023-03-08T21:14:21.633Z,80.15
2023-03-08T21:16:51.822Z,80.23
2023-03-08T21:19:20.638Z,80.02
2023-03-08T21:21:48.798Z,80.16
2023-03-08T21:24:18.786Z,80.12
2023-03-08T21:26:46.899Z,80.07
2023-03-08T21:29:16.908Z,80.28
2023-03-08T21:31:48.576Z,80.20
2023-03-08T21:34:17.782Z,80.44
2023-03-08T21:36:46.235Z,80.49
2023-03-08T21:39:14.439Z,80.66
2023-03-08T21:41:44.161Z,80.75
2023-03-08T21:44:17.810Z,80.95
2023-03-08T21:46:46.752Z,81.04
2023-03-08T21:49:17.848Z,81.12
2023-03-08T21:51:45.979Z,81.40
2023-03-08T21:54:15.501Z,81.47
2023-03-08T21:56:44.131Z,81.58
2023-03-08T21:59:13.248Z,81.55
2023-03-08T22:01:43.162Z,81.82
2023-03-08T22:04:11.301Z,81.84
2023-03-08T22:06:39.497Z,81.99
2023-03-08T22:09:10.212Z,82.18
2023-03-08T22:11:38.485Z,82.26
2023-03-08T22:14:07.372Z,82.36
2023-03-08T22:16:40.064Z,82.47
2023-03-08T22:19:09.999Z,82.61
2023-03-08T22:21:38.555Z,82.61
2023-03-08T22:24:10.328Z,82.76
2023-03-08T22:26:43.569Z,82.90
2023-03-08T22:29:11.687Z,82.96
2023-03-08T22:31:40.470Z,83.06
2023-03-08T22:34:09.574Z,83.09
2023-03-08T22:36:38.147Z,83.29
2023-03-08T22:39:06.533Z,83.38
2023-03-08T22:41:34.617Z,83.61
2023-03-08T22:44:04.301Z,83.81
2023-03-08T22:46:34.459Z,83.94
2023-03-08T22:49:05.267Z,84.04
2023-03-08T22:51:34.775Z,83.95
2023-03-08T22:54:05.640Z,83.91
2023-03-08T22:56:34.279Z,84.11
2023-03-08T22:59:03.699Z,84.18
2023-03-08T23:01:33.563Z,84.30
2023-03-08T23:04:02.638Z,84.43
2023-03-08T23:06:31.357Z,84.30
2023-03-08T23:09:01.339Z,84.50
2023-03-08T23:11:30.625Z,84.62
2023-03-08T23:14:02.076Z,84.92
2023-03-08T23:16:30.687Z,84.82
2023-03-08T23:18:58.851Z,84.85
2023-03-08T23:21:29.405Z,85.08
2023-03-08T23:23:58.047Z,85.18
2023-03-08T23:26:27.484Z,85.31
2023-03-08T23:28:57.691Z,85.58
2023-03-08T23:31:28.883Z,85.53
2023-03-08T23:33:57.839Z,85.60
2023-03-08T23:36:31.728Z,85.73
2023-03-08T23:39:02.858Z,85.59
2023-03-08T23:41:31.458Z,85.64
2023-03-08T23:44:00.548Z,85.75
2023-03-08T23:46:29.226Z,85.94
2023-03-08T23:48:59.186Z,85.96
2023-03-08T23:51:29.642Z,85.98
2023-03-08T23:53:58.675Z,85.95
2023-03-08T23:56:30.293Z,86.07
2023-03-08T23:58:59.806Z,85.96
